ADDS METAR Data INFO
IDs: Format: Raw Decoded Include TAF

Data at: 0512 UTC 22 Jul 2017

KINJ 220455Z AUTO 12008KT 10SM CLR 29/22 A2996 RMK AO2 T02900220
KINJ 220435Z AUTO 12008KT 10SM CLR 29/22 A2996 RMK AO2 T02920219
KINJ 220415Z AUTO 12009KT 10SM CLR 30/22 A2996 RMK AO2 T02960217
KINJ 220355Z AUTO 12009G14KT 10SM CLR 30/22 A2996 RMK AO2 T03000215
KINJ 220335Z AUTO 11009KT 10SM CLR 30/22 A2996 RMK AO2 T03010216
KINJ 220315Z AUTO 11008KT 10SM CLR 31/22 A2995 RMK AO2 T03050216
KINJ 220255Z AUTO 11008KT 10SM CLR 31/22 A2994 RMK AO2 T03060216
KINJ 220235Z AUTO 11007KT 10SM CLR 31/22 A2993 RMK AO2 T03120215
KINJ 220215Z AUTO 11008KT 10SM CLR 32/21 A2993 RMK AO2 T03170213
KINJ 220155Z AUTO 11006KT 10SM CLR 32/21 A2992 RMK AO2 T03230212
KINJ 220135Z AUTO 12008KT 10SM CLR 33/21 A2991 RMK AO2 T03310211
KINJ 220115Z AUTO 11006KT 10SM CLR 34/21 A2991 RMK AO2 T03380210
KINJ 220055Z AUTO 12008KT 10SM CLR 35/21 A2990 RMK AO2 T03460205
KINJ 220035Z AUTO 12008KT 10SM CLR 35/20 A2990 RMK AO2 T03520202
KINJ 220015Z AUTO 12007KT 10SM CLR 36/20 A2991 RMK AO2 T03580201
KINJ 212355Z AUTO 13009KT 10SM SCT075 36/20 A2991 RMK AO2 T03640196 10372 20342
KINJ 212335Z AUTO 12008KT 10SM SCT075 37/20 A2991 RMK AO2 T03680196
KINJ 212315Z AUTO 16007KT 10SM SCT075 37/19 A2992 RMK AO2 T03700194
KINJ 212255Z AUTO 15009KT 10SM SCT075 37/20 A2992 RMK AO2 T03710196
KINJ 212235Z AUTO 16007KT 10SM SCT075 37/19 A2992 RMK AO2 T03700193
KINJ 212215Z AUTO 10007KT 10SM CLR 37/19 A2993 RMK AO2 T03670189
KINJ 212155Z AUTO 10006KT 10SM SCT070 37/20 A2993 RMK AO2 T03680196
KINJ 212135Z AUTO 10007KT 10SM SCT070 37/20 A2994 RMK AO2 T03720200
KINJ 212115Z AUTO 12007KT 10SM SCT070 37/20 A2995 RMK AO2 T03650198
KINJ 212055Z AUTO 14008KT 10SM SCT070 37/21 A2995 RMK AO2 T03690206
KINJ 212035Z AUTO 14006KT 10SM CLR 37/20 A2996 RMK AO2 T03690203
KINJ 212015Z AUTO 11008KT 10SM CLR 37/21 A2997 RMK AO2 T03650205
KINJ 211955Z AUTO 18005KT 10SM SCT060 36/21 A2998 RMK AO2 T03620208
KINJ 211935Z AUTO 13007KT 10SM BKN060 36/21 A2999 RMK AO2 T03620214
KINJ 211915Z AUTO 21005KT 10SM SCT060 36/22 A2999 RMK AO2 T03570217
KINJ 211855Z AUTO 17008KT 10SM CLR 35/21 A3001 RMK AO2 T03540213
KINJ 211835Z AUTO 16006KT 10SM CLR 35/21 A3001 RMK AO2 T03540213
KINJ 211815Z AUTO 14009G14KT 10SM CLR 36/21 A3001 RMK AO2 T03560211
KINJ 211755Z AUTO 21008KT 10SM CLR 35/21 A3002 RMK AO2 T03470213 10351 20251
KINJ 211735Z AUTO 19007KT 10SM CLR 35/21 A3003 RMK AO2 T03470211
KINJ 211715Z AUTO 14007KT 10SM CLR 34/22 A3003 RMK AO2 T03440223
KINJ 211655Z AUTO 17009KT 10SM CLR 34/22 A3003 RMK AO2 T03370217
KINJ 211635Z AUTO 16005KT 10SM CLR 33/22 A3004 RMK AO2 T03290224
KINJ 211615Z AUTO 18008KT 10SM CLR 32/22 A3004 RMK AO2 T03240224
KINJ 211555Z AUTO 17007KT 10SM CLR 32/23 A3004 RMK AO2 T03200231
KINJ 211535Z AUTO 21006KT 10SM CLR 31/23 A3004 RMK AO2 T03130229
KINJ 211520Z AUTO 20007KT 10SM CLR 31/23 A3004 RMK AO2 T03100229
KINJ 211455Z AUTO 19008KT 10SM CLR 31/23 A3005 RMK AO2 T03060231
KINJ 211435Z AUTO 19008KT 10SM CLR 30/23 A3005 RMK AO2 T03000232
KINJ 211415Z AUTO 19006KT 10SM CLR 29/23 A3005 RMK AO2 T02930231
KINJ 211355Z AUTO 18008KT 10SM CLR 29/23 A3005 RMK AO2 T02870232
KINJ 211335Z AUTO 18007KT 10SM CLR 28/23 A3005 RMK AO2 T02840234
KINJ 211315Z AUTO 17005KT 10SM CLR 27/24 A3004 RMK AO2 T02740235
KINJ 211255Z AUTO 15004KT 10SM CLR 27/24 A3004 RMK AO2 T02650235
KINJ 211235Z AUTO 14005KT 10SM CLR 26/23 A3004 RMK AO2 T02580232
KINJ 211215Z AUTO 14005KT 10SM CLR 25/23 A3003 RMK AO2 T02530230
KINJ 211155Z AUTO 14005KT 10SM CLR 25/23 A3003 RMK AO2 T02510227 10284 20251
KINJ 211135Z AUTO 14004KT 10SM CLR 26/23 A3003 RMK AO2 T02550228
KINJ 211115Z AUTO 14005KT 10SM CLR 26/23 A3002 RMK AO2 T02560227
KINJ 211055Z AUTO 14005KT 10SM CLR 26/23 A3001 RMK AO2 T02570226
KINJ 211035Z AUTO 14003KT 10SM CLR 26/23 A3001 RMK AO2 T02590226
KINJ 211015Z AUTO 14005KT 10SM CLR 26/23 A3000 RMK AO2 T02610226
KINJ 210955Z AUTO 15004KT 10SM CLR 26/23 A3000 RMK AO2 T02630226
KINJ 210935Z AUTO 16004KT 10SM CLR 27/23 A3000 RMK AO2 T02660227
KINJ 210915Z AUTO 16005KT 10SM CLR 27/23 A3001 RMK AO2 T02690228
KINJ 210855Z AUTO 16006KT 10SM CLR 27/23 A3001 RMK AO2 T02710228
KINJ 210835Z AUTO 16007KT 10SM CLR 27/23 A3001 RMK AO2 T02730227
KINJ 210815Z AUTO 16006KT 10SM CLR 28/23 A3002 RMK AO2 T02750226
KINJ 210755Z AUTO 16007KT 10SM CLR 28/23 A3002 RMK AO2 T02770225
KINJ 210735Z AUTO 15007KT 10SM CLR 28/23 A3002 RMK AO2 T02800225
KINJ 210715Z AUTO 15007KT 10SM CLR 28/22 A3002 RMK AO2 T02810222
KINJ 210655Z AUTO 15007KT 10SM CLR 28/22 A3002 RMK AO2 T02810219
KINJ 210635Z AUTO 15007KT 10SM CLR 28/22 A3002 RMK AO2 T02810216
KINJ 210615Z AUTO 14007KT 10SM CLR 28/22 A3002 RMK AO2 T02820217
KINJ 210555Z AUTO 13007KT 10SM CLR 28/22 A3003 RMK AO2 T02840217 10363 20283 403720255
KINJ 210535Z AUTO 13008KT 10SM CLR 29/22 A3003 RMK AO2 T02850218
KINJ 210515Z AUTO 12008KT 10SM CLR 29/22 A3003 RMK AO2 T02860220
KINJ 210455Z AUTO 12008KT 10SM CLR 29/22 A3003 RMK AO2 T02900220
KINJ 210435Z AUTO 10009KT 10SM CLR 29/22 A3003 RMK AO2 T02900220
KINJ 210415Z AUTO 10007KT 10SM CLR 29/22 A3003 RMK AO2 T02900220
KINJ 210355Z AUTO 10007KT 10SM CLR 29/22 A3002 RMK AO2 T02930218
KINJ 210335Z AUTO 10007KT 10SM CLR 30/22 A3002 RMK AO2 T02980217
KINJ 210315Z AUTO 10007KT 10SM CLR 30/22 A3001 RMK AO2 T03020216
KINJ 210255Z AUTO 10007KT 10SM CLR 31/22 A3001 RMK AO2 T03060217
KINJ 210235Z AUTO 10007KT 10SM CLR 31/22 A3000 RMK AO2 T03100218
KINJ 210215Z AUTO 11008KT 10SM CLR 32/22 A2999 RMK AO2 T03150220
KINJ 210155Z AUTO 10007KT 10SM CLR 32/22 A2999 RMK AO2 T03190221
KINJ 210135Z AUTO 10008KT 10SM CLR 33/22 A2998 RMK AO2 T03270220
KINJ 210115Z AUTO 10008KT 10SM CLR 34/22 A2998 RMK AO2 T03350220
KINJ 210055Z AUTO 10009KT 10SM CLR 34/22 A2998 RMK AO2 T03420218
KINJ 210035Z AUTO 09006KT 10SM CLR 35/21 A2998 RMK AO2 T03510214
KINJ 210015Z AUTO 11005KT 10SM SCT075 SCT090 36/20 A2998 RMK AO2 T03590204
KINJ 202355Z AUTO 11006KT 10SM BKN075 BKN090 36/20 A2998 RMK AO2 T03640198 10372 20343
KINJ 202335Z AUTO 12007KT 10SM SCT075 37/19 A2998 RMK AO2 T03690190
KINJ 202315Z AUTO 14007KT 10SM SCT075 37/19 A2998 RMK AO2 T03710185
KINJ 202255Z AUTO 14005KT 10SM SCT075 36/19 A2999 RMK AO2 T03630193
KINJ 202235Z AUTO 11005KT 10SM SCT070 37/20 A3000 RMK AO2 T03650200
KINJ 202215Z AUTO 15007KT 10SM SCT075 BKN085 37/20 A3000 RMK AO2 T03680202
KINJ 202155Z AUTO 14006KT 10SM SCT075 BKN085 36/20 A3001 RMK AO2 T03570197
KINJ 202135Z AUTO 12006KT 10SM SCT075 37/20 A3002 RMK AO2 T03670198
KINJ 202115Z AUTO 20003KT 10SM CLR 36/19 A3002 RMK AO2 T03630194
KINJ 202055Z AUTO 13005KT 10SM CLR 36/20 A3003 RMK AO2 T03620197
KINJ 202035Z AUTO 00000KT 10SM CLR 36/19 A3004 RMK AO2 T03620194
KINJ 202015Z AUTO 24003KT 10SM SCT065 36/21 A3005 RMK AO2 T03620208
KINJ 201955Z AUTO 12004KT 10SM SCT055 36/20 A3006 RMK AO2 T03590204
KINJ 201935Z AUTO 13007KT 7SM BKN055 35/21 A3006 RMK AO2 T03530214
KINJ 201915Z AUTO 19005KT 10SM BKN055 36/21 A3008 RMK AO2 T03570210
KINJ 201855Z AUTO 18004KT 10SM BKN055 BKN070 35/22 A3008 RMK AO2 T03520215
KINJ 201835Z AUTO 17007KT 10SM SCT055 35/21 A3010 RMK AO2 T03480214
KINJ 201815Z AUTO 19003KT 10SM CLR 35/21 A3010 RMK AO2 T03460214
KINJ 201755Z AUTO 20005KT 10SM CLR 34/22 A3011 RMK AO2 T03440215 10344 20255
KINJ 201735Z AUTO 18006KT 10SM CLR 34/21 A3012 RMK AO2 T03430214
KINJ 201715Z AUTO 20006KT 10SM CLR 34/22 A3012 RMK AO2 T03370222